sensor_id;sensor_type;location;lat;lon;timestamp;noise_LAeq;noise_LA_min;noise_LA_max;noise_LA01;noise_LA95
43787;Laerm;29409;49.306;8.500;2023-03-15T00:00:04;40.58;37.52;44.83;;
43787;Laerm;29409;49.306;8.500;2023-03-15T00:01:09;40.82;38.05;44.90;;
43787;Laerm;29409;49.306;8.500;2023-03-15T00:02:09;40.30;37.32;42.35;;
43787;Laerm;29409;49.306;8.500;2023-03-15T00:03:10;40.21;36.91;42.71;;
43787;Laerm;29409;49.306;8.500;2023-03-15T00:04:11;40.27;37.12;42.53;;
43787;Laerm;29409;49.306;8.500;2023-03-15T00:05:12;40.55;37.52;42.53;;
43787;Laerm;29409;49.306;8.500;2023-03-15T00:06:13;40.13;37.12;44.27;;
43787;Laerm;29409;49.306;8.500;2023-03-15T00:07:13;40.28;36.91;42.65;;
43787;Laerm;29409;49.306;8.500;2023-03-15T00:08:14;40.43;37.32;42.13;;
43787;Laerm;29409;49.306;8.500;2023-03-15T00:09:14;40.47;37.52;42.35;;
43787;Laerm;29409;49.306;8.500;2023-03-15T00:10:15;40.63;37.70;42.53;;
43787;Laerm;29409;49.306;8.500;2023-03-15T00:11:15;40.32;37.70;42.59;;
43787;Laerm;29409;49.306;8.500;2023-03-15T00:12:16;40.25;36.69;42.29;;
43787;Laerm;29409;49.306;8.500;2023-03-15T00:13:16;40.47;36.91;42.41;;
43787;Laerm;29409;49.306;8.500;2023-03-15T00:14:18;40.45;36.91;42.53;;
43787;Laerm;29409;49.306;8.500;2023-03-15T00:15:19;40.41;36.91;42.41;;
43787;Laerm;29409;49.306;8.500;2023-03-15T00:16:19;40.40;37.52;42.41;;
43787;Laerm;29409;49.306;8.500;2023-03-15T00:17:19;40.83;37.88;42.98;;
43787;Laerm;29409;49.306;8.500;2023-03-15T00:18:21;40.69;37.32;42.98;;
43787;Laerm;29409;49.306;8.500;2023-03-15T00:19:22;40.69;35.94;42.65;;
43787;Laerm;29409;49.306;8.500;2023-03-15T00:20:22;40.48;36.91;42.69;;
43787;Laerm;29409;49.306;8.500;2023-03-15T00:21:23;40.51;37.12;42.71;;
43787;Laerm;29409;49.306;8.500;2023-03-15T00:22:23;40.95;36.20;44.23;;
43787;Laerm;29409;49.306;8.500;2023-03-15T00:23:24;41.36;38.21;58.02;;
43787;Laerm;29409;49.306;8.500;2023-03-15T00:24:24;40.58;37.70;51.66;;
43787;Laerm;29409;49.306;8.500;2023-03-15T00:25:24;40.38;37.88;45.07;;
43787;Laerm;29409;49.306;8.500;2023-03-15T00:26:25;40.55;38.02;43.04;;
43787;Laerm;29409;49.306;8.500;2023-03-15T00:27:25;40.67;37.52;43.58;;
43787;Laerm;29409;49.306;8.500;2023-03-15T00:28:25;40.55;37.52;42.65;;
43787;Laerm;29409;49.306;8.500;2023-03-15T00:29:26;40.60;37.12;42.88;;
43787;Laerm;29409;49.306;8.500;2023-03-15T00:30:26;40.59;37.88;42.53;;
43787;Laerm;29409;49.306;8.500;2023-03-15T00:31:27;40.51;37.70;42.76;;
43787;Laerm;29409;49.306;8.500;2023-03-15T00:32:28;39.83;37.70;42.47;;
43787;Laerm;29409;49.306;8.500;2023-03-15T00:33:28;39.93;36.91;42.53;;
43787;Laerm;29409;49.306;8.500;2023-03-15T00:34:30;40.69;37.88;52.41;;
43787;Laerm;29409;49.306;8.500;2023-03-15T00:35:31;40.91;37.52;43.19;;
43787;Laerm;29409;49.306;8.500;2023-03-15T00:36:34;40.77;37.52;51.01;;
43787;Laerm;29409;49.306;8.500;2023-03-15T00:37:35;40.77;37.32;42.59;;
43787;Laerm;29409;49.306;8.500;2023-03-15T00:38:37;40.59;37.88;42.47;;
43787;Laerm;29409;49.306;8.500;2023-03-15T00:39:37;41.35;38.52;42.98;;
43787;Laerm;29409;49.306;8.500;2023-03-15T00:40:39;41.40;38.37;42.93;;
43787;Laerm;29409;49.306;8.500;2023-03-15T00:41:40;41.06;37.70;42.82;;
43787;Laerm;29409;49.306;8.500;2023-03-15T00:42:40;40.85;37.88;42.88;;
43787;Laerm;29409;49.306;8.500;2023-03-15T00:43:41;40.73;37.88;43.58;;
43787;Laerm;29409;49.306;8.500;2023-03-15T00:44:42;41.28;37.52;44.97;;
43787;Laerm;29409;49.306;8.500;2023-03-15T00:45:42;41.90;38.05;44.87;;
43787;Laerm;29409;49.306;8.500;2023-03-15T00:46:44;40.81;36.91;44.62;;
43787;Laerm;29409;49.306;8.500;2023-03-15T00:47:47;40.14;37.32;42.29;;
43787;Laerm;29409;49.306;8.500;2023-03-15T00:48:48;40.58;37.17;42.88;;
43787;Laerm;29409;49.306;8.500;2023-03-15T00:49:49;40.59;37.88;42.71;;
43787;Laerm;29409;49.306;8.500;2023-03-15T00:50:49;40.53;37.88;42.59;;
43787;Laerm;29409;49.306;8.500;2023-03-15T00:51:51;40.68;37.70;43.90;;
43787;Laerm;29409;49.306;8.500;2023-03-15T00:52:53;40.91;37.70;54.92;;
43787;Laerm;29409;49.306;8.500;2023-03-15T00:53:53;40.05;36.91;42.22;;
43787;Laerm;29409;49.306;8.500;2023-03-15T00:54:54;40.26;37.32;43.77;;
43787;Laerm;29409;49.306;8.500;2023-03-15T00:55:54;40.46;36.91;46.95;;
43787;Laerm;29409;49.306;8.500;2023-03-15T00:56:55;39.92;36.91;42.41;;
43787;Laerm;29409;49.306;8.500;2023-03-15T00:57:55;39.90;37.32;42.29;;
43787;Laerm;29409;49.306;8.500;2023-03-15T00:58:56;39.81;36.77;42.53;;
43787;Laerm;29409;49.306;8.500;2023-03-15T00:59:56;40.05;36.91;42.35;;
43787;Laerm;29409;49.306;8.500;2023-03-15T01:00:56;40.23;37.12;44.73;;
43787;Laerm;29409;49.306;8.500;2023-03-15T01:01:57;39.80;36.34;42.41;;
43787;Laerm;29409;49.306;8.500;2023-03-15T01:02:57;40.04;37.12;43.44;;
43787;Laerm;29409;49.306;8.500;2023-03-15T01:03:57;40.27;36.69;42.22;;
43787;Laerm;29409;49.306;8.500;2023-03-15T01:04:58;39.91;36.69;42.53;;
43787;Laerm;29409;49.306;8.500;2023-03-15T01:06:00;40.37;37.32;43.19;;
43787;Laerm;29409;49.306;8.500;2023-03-15T01:07:03;40.18;37.32;42.47;;
43787;Laerm;29409;49.306;8.500;2023-03-15T01:08:04;40.36;37.32;42.59;;
43787;Laerm;29409;49.306;8.500;2023-03-15T01:09:04;40.44;36.69;42.98;;
43787;Laerm;29409;49.306;8.500;2023-03-15T01:10:05;40.62;36.69;42.76;;
43787;Laerm;29409;49.306;8.500;2023-03-15T01:11:07;40.55;36.45;43.04;;
43787;Laerm;29409;49.306;8.500;2023-03-15T01:12:08;40.10;36.69;42.53;;
43787;Laerm;29409;49.306;8.500;2023-03-15T01:13:08;40.06;37.32;42.59;;
43787;Laerm;29409;49.306;8.500;2023-03-15T01:14:08;40.10;36.69;42.76;;
43787;Laerm;29409;49.306;8.500;2023-03-15T01:15:10;40.27;37.17;42.16;;
43787;Laerm;29409;49.306;8.500;2023-03-15T01:16:11;40.37;37.88;42.35;;
43787;Laerm;29409;49.306;8.500;2023-03-15T01:17:12;40.31;36.45;42.76;;
43787;Laerm;29409;49.306;8.500;2023-03-15T01:18:12;40.74;37.88;44.62;;
43787;Laerm;29409;49.306;8.500;2023-03-15T01:19:13;40.33;36.69;42.88;;
43787;Laerm;29409;49.306;8.500;2023-03-15T01:20:13;39.87;36.91;42.65;;
43787;Laerm;29409;49.306;8.500;2023-03-15T01:21:14;39.92;36.45;42.09;;
43787;Laerm;29409;49.306;8.500;2023-03-15T01:22:14;40.54;37.52;44.76;;
43787;Laerm;29409;49.306;8.500;2023-03-15T01:23:15;41.63;37.52;43.94;;
43787;Laerm;29409;49.306;8.500;2023-03-15T01:24:15;41.25;37.52;43.54;;
43787;Laerm;29409;49.306;8.500;2023-03-15T01:25:16;42.00;36.45;43.94;;
43787;Laerm;29409;49.306;8.500;2023-03-15T01:26:16;42.01;37.70;43.86;;
43787;Laerm;29409;49.306;8.500;2023-03-15T01:27:18;43.65;38.95;53.25;;
43787;Laerm;29409;49.306;8.500;2023-03-15T01:28:18;42.43;38.52;51.92;;
43787;Laerm;29409;49.306;8.500;2023-03-15T01:29:20;40.76;37.32;45.97;;
43787;Laerm;29409;49.306;8.500;2023-03-15T01:30:20;40.49;37.32;42.65;;
43787;Laerm;29409;49.306;8.500;2023-03-15T01:31:22;41.02;37.32;43.19;;
43787;Laerm;29409;49.306;8.500;2023-03-15T01:32:23;41.72;38.37;44.03;;
43787;Laerm;29409;49.306;8.500;2023-03-15T01:33:23;41.60;38.21;44.03;;
43787;Laerm;29409;49.306;8.500;2023-03-15T01:34:23;41.89;38.05;43.81;;
43787;Laerm;29409;49.306;8.500;2023-03-15T01:35:24;41.55;38.05;43.94;;
43787;Laerm;29409;49.306;8.500;2023-03-15T01:36:24;40.61;36.20;42.65;;
43787;Laerm;29409;49.306;8.500;2023-03-15T01:37:24;40.83;37.88;42.88;;
43787;Laerm;29409;49.306;8.500;2023-03-15T01:38:25;41.19;38.21;43.29;;
43787;Laerm;29409;49.306;8.500;2023-03-15T01:39:25;41.66;38.05;44.49;;
43787;Laerm;29409;49.306;8.500;2023-03-15T01:40:26;41.57;38.60;44.15;;
43787;Laerm;29409;49.306;8.500;2023-03-15T01:41:27;41.57;38.37;44.23;;
43787;Laerm;29409;49.306;8.500;2023-03-15T01:42:28;41.20;38.67;43.44;;
43787;Laerm;29409;49.306;8.500;2023-03-15T01:43:29;40.81;37.32;42.82;;
43787;Laerm;29409;49.306;8.500;2023-03-15T01:44:51;40.49;36.69;42.93;;
43787;Laerm;29409;49.306;8.500;2023-03-15T01:47:05;40.46;37.88;42.47;;
43787;Laerm;29409;49.306;8.500;2023-03-15T01:48:05;40.32;37.32;42.41;;
43787;Laerm;29409;49.306;8.500;2023-03-15T01:49:08;40.60;37.32;42.76;;
43787;Laerm;29409;49.306;8.500;2023-03-15T01:50:11;40.39;37.12;42.29;;
43787;Laerm;29409;49.306;8.500;2023-03-15T01:52:28;40.24;36.91;44.80;;
43787;Laerm;29409;49.306;8.500;2023-03-15T01:53:31;40.22;37.32;44.15;;
43787;Laerm;29409;49.306;8.500;2023-03-15T01:54:33;40.42;37.70;42.59;;
43787;Laerm;29409;49.306;8.500;2023-03-15T01:55:37;40.34;36.91;44.73;;
43787;Laerm;29409;49.306;8.500;2023-03-15T01:56:39;40.31;37.12;42.93;;
43787;Laerm;29409;49.306;8.500;2023-03-15T01:57:42;40.44;37.88;42.65;;
43787;Laerm;29409;49.306;8.500;2023-03-15T01:58:43;40.18;36.69;42.35;;
43787;Laerm;29409;49.306;8.500;2023-03-15T01:59:47;40.24;37.52;42.88;;
43787;Laerm;29409;49.306;8.500;2023-03-15T02:00:50;40.06;36.69;42.03;;
43787;Laerm;29409;49.306;8.500;2023-03-15T02:01:52;39.85;36.69;42.29;;
43787;Laerm;29409;49.306;8.500;2023-03-15T02:02:56;40.17;37.32;42.47;;
43787;Laerm;29409;49.306;8.500;2023-03-15T02:04:06;40.11;36.69;42.35;;
43787;Laerm;29409;49.306;8.500;2023-03-15T02:05:09;40.83;35.94;43.24;;
43787;Laerm;29409;49.306;8.500;2023-03-15T02:06:12;40.37;37.32;43.09;;
43787;Laerm;29409;49.306;8.500;2023-03-15T02:07:17;40.06;36.69;42.71;;
43787;Laerm;29409;49.306;8.500;2023-03-15T02:08:19;40.16;36.91;42.76;;
43787;Laerm;29409;49.306;8.500;2023-03-15T02:09:20;40.38;37.12;48.42;;
43787;Laerm;29409;49.306;8.500;2023-03-15T02:10:26;42.30;37.32;61.68;;
43787;Laerm;29409;49.306;8.500;2023-03-15T02:11:29;40.30;37.12;44.58;;
43787;Laerm;29409;49.306;8.500;2023-03-15T02:12:30;40.52;37.12;50.22;;
43787;Laerm;29409;49.306;8.500;2023-03-15T02:13:32;40.00;36.91;42.35;;
43787;Laerm;29409;49.306;8.500;2023-03-15T02:14:33;40.39;37.52;42.47;;
43787;Laerm;29409;49.306;8.500;2023-03-15T02:15:35;40.62;37.12;42.93;;
43787;Laerm;29409;49.306;8.500;2023-03-15T02:16:36;40.66;37.88;42.71;;
43787;Laerm;29409;49.306;8.500;2023-03-15T02:17:41;40.50;37.32;42.76;;
43787;Laerm;29409;49.306;8.500;2023-03-15T02:18:42;40.49;37.52;42.88;;
43787;Laerm;29409;49.306;8.500;2023-03-15T02:22:25;43.91;38.52;56.58;;
43787;Laerm;29409;49.306;8.500;2023-03-15T02:23:29;40.94;38.21;43.29;;
43787;Laerm;29409;49.306;8.500;2023-03-15T02:24:43;40.70;37.88;42.65;;
43787;Laerm;29409;49.306;8.500;2023-03-15T02:25:56;41.20;37.88;43.81;;
43787;Laerm;29409;49.306;8.500;2023-03-15T02:27:01;41.16;38.37;44.07;;
43787;Laerm;29409;49.306;8.500;2023-03-15T02:28:02;40.91;37.87;43.04;;
43787;Laerm;29409;49.306;8.500;2023-03-15T02:29:04;40.94;38.21;44.62;;
43787;Laerm;29409;49.306;8.500;2023-03-15T02:30:05;40.89;37.70;42.82;;
43787;Laerm;29409;49.306;8.500;2023-03-15T02:31:06;42.27;39.21;45.11;;
43787;Laerm;29409;49.306;8.500;2023-03-15T02:32:06;41.34;38.81;44.03;;
43787;Laerm;29409;49.306;8.500;2023-03-15T02:33:09;41.14;37.88;44.58;;
43787;Laerm;29409;49.306;8.500;2023-03-15T02:34:12;40.64;37.52;44.01;;
43787;Laerm;29409;49.306;8.500;2023-03-15T02:35:21;40.60;38.05;42.82;;
43787;Laerm;29409;49.306;8.500;2023-03-15T02:36:23;40.31;37.32;42.76;;
43787;Laerm;29409;49.306;8.500;2023-03-15T02:37:23;40.14;36.69;42.93;;
43787;Laerm;29409;49.306;8.500;2023-03-15T02:38:24;40.21;37.32;43.04;;
43787;Laerm;29409;49.306;8.500;2023-03-15T02:39:24;40.30;37.32;43.14;;
43787;Laerm;29409;49.306;8.500;2023-03-15T02:40:26;40.43;37.12;42.47;;
43787;Laerm;29409;49.306;8.500;2023-03-15T02:41:31;40.42;37.70;43.19;;
43787;Laerm;29409;49.306;8.500;2023-03-15T02:42:33;40.75;36.91;43.49;;
43787;Laerm;29409;49.306;8.500;2023-03-15T02:43:33;40.65;38.05;43.90;;
43787;Laerm;29409;49.306;8.500;2023-03-15T02:44:35;40.62;38.05;43.04;;
43787;Laerm;29409;49.306;8.500;2023-03-15T02:45:36;40.47;37.32;43.63;;
43787;Laerm;29409;49.306;8.500;2023-03-15T02:46:37;41.28;37.32;47.63;;
43787;Laerm;29409;49.306;8.500;2023-03-15T02:47:39;40.20;37.32;42.29;;
43787;Laerm;29409;49.306;8.500;2023-03-15T02:48:39;40.70;35.94;46.50;;
43787;Laerm;29409;49.306;8.500;2023-03-15T02:49:42;40.23;37.32;42.59;;
43787;Laerm;29409;49.306;8.500;2023-03-15T02:50:43;40.13;36.91;42.16;;
43787;Laerm;29409;49.306;8.500;2023-03-15T02:51:43;39.90;35.94;42.16;;
43787;Laerm;29409;49.306;8.500;2023-03-15T02:52:44;40.16;35.36;42.76;;
43787;Laerm;29409;49.306;8.500;2023-03-15T02:53:44;39.90;36.69;42.47;;
43787;Laerm;29409;49.306;8.500;2023-03-15T02:54:45;40.10;37.12;42.59;;
43787;Laerm;29409;49.306;8.500;2023-03-15T02:55:45;40.08;36.45;43.68;;
43787;Laerm;29409;49.306;8.500;2023-03-15T02:56:46;40.20;37.17;42.59;;
43787;Laerm;29409;49.306;8.500;2023-03-15T02:57:46;40.37;37.12;43.09;;
43787;Laerm;29409;49.306;8.500;2023-03-15T02:58:47;40.09;36.45;42.22;;
43787;Laerm;29409;49.306;8.500;2023-03-15T02:59:47;40.22;36.69;42.16;;
43787;Laerm;29409;49.306;8.500;2023-03-15T03:00:51;40.44;36.98;42.98;;
43787;Laerm;29409;49.306;8.500;2023-03-15T03:01:52;40.11;36.69;42.22;;
43787;Laerm;29409;49.306;8.500;2023-03-15T03:02:52;40.22;37.12;42.41;;
43787;Laerm;29409;49.306;8.500;2023-03-15T03:03:52;43.48;37.88;52.51;;
43787;Laerm;29409;49.306;8.500;2023-03-15T03:04:52;40.72;37.70;45.72;;
43787;Laerm;29409;49.306;8.500;2023-03-15T03:05:53;42.05;37.70;50.17;;
43787;Laerm;29409;49.306;8.500;2023-03-15T03:06:53;41.49;37.70;45.57;;
43787;Laerm;29409;49.306;8.500;2023-03-15T03:07:53;40.86;37.52;43.63;;
43787;Laerm;29409;49.306;8.500;2023-03-15T03:08:54;40.62;37.52;42.64;;
43787;Laerm;29409;49.306;8.500;2023-03-15T03:09:54;40.70;37.70;43.68;;
43787;Laerm;29409;49.306;8.500;2023-03-15T03:10:54;40.23;37.32;42.29;;
43787;Laerm;29409;49.306;8.500;2023-03-15T03:11:55;40.17;37.12;42.35;;
43787;Laerm;29409;49.306;8.500;2023-03-15T03:12:55;40.41;37.12;42.47;;
43787;Laerm;29409;49.306;8.500;2023-03-15T03:13:55;40.78;37.88;43.49;;
43787;Laerm;29409;49.306;8.500;2023-03-15T03:14:56;40.82;38.18;44.80;;
43787;Laerm;29409;49.306;8.500;2023-03-15T03:15:56;40.61;37.70;43.14;;
43787;Laerm;29409;49.306;8.500;2023-03-15T03:16:59;40.63;37.12;44.43;;
43787;Laerm;29409;49.306;8.500;2023-03-15T03:18:00;40.26;37.12;42.41;;
43787;Laerm;29409;49.306;8.500;2023-03-15T03:19:00;40.39;37.32;43.77;;
43787;Laerm;29409;49.306;8.500;2023-03-15T03:20:02;40.57;37.32;42.47;;
43787;Laerm;29409;49.306;8.500;2023-03-15T03:21:04;40.72;37.32;42.71;;
43787;Laerm;29409;49.306;8.500;2023-03-15T03:22:05;40.72;37.12;42.98;;
43787;Laerm;29409;49.306;8.500;2023-03-15T03:23:05;40.73;38.18;42.88;;
43787;Laerm;29409;49.306;8.500;2023-03-15T03:24:06;40.84;38.21;44.97;;
43787;Laerm;29409;49.306;8.500;2023-03-15T03:25:07;41.25;38.37;43.19;;
43787;Laerm;29409;49.306;8.500;2023-03-15T03:26:16;41.18;38.60;42.93;;
43787;Laerm;29409;49.306;8.500;2023-03-15T03:27:17;41.04;38.21;43.14;;
43787;Laerm;29409;49.306;8.500;2023-03-15T03:28:19;41.22;37.52;43.19;;
43787;Laerm;29409;49.306;8.500;2023-03-15T03:29:19;40.88;38.52;42.71;;
43787;Laerm;29409;49.306;8.500;2023-03-15T03:30:19;40.69;37.52;43.24;;
43787;Laerm;29409;49.306;8.500;2023-03-15T03:31:21;41.08;37.88;44.31;;
43787;Laerm;29409;49.306;8.500;2023-03-15T03:32:22;41.07;37.88;42.88;;
43787;Laerm;29409;49.306;8.500;2023-03-15T03:33:23;41.10;37.70;46.64;;
43787;Laerm;29409;49.306;8.500;2023-03-15T03:34:23;41.31;38.37;44.31;;
43787;Laerm;29409;49.306;8.500;2023-03-15T03:35:24;41.05;38.37;43.58;;
43787;Laerm;29409;49.306;8.500;2023-03-15T03:36:24;41.37;36.45;43.58;;
43787;Laerm;29409;49.306;8.500;2023-03-15T03:37:25;41.35;37.52;44.11;;
43787;Laerm;29409;49.306;8.500;2023-03-15T03:38:26;40.87;37.88;46.95;;
43787;Laerm;29409;49.306;8.500;2023-03-15T03:39:26;40.39;37.32;42.82;;
43787;Laerm;29409;49.306;8.500;2023-03-15T03:40:26;41.63;38.37;55.34;;
43787;Laerm;29409;49.306;8.500;2023-03-15T03:41:27;41.64;38.05;48.20;;
43787;Laerm;29409;49.306;8.500;2023-03-15T03:42:27;42.03;38.81;45.94;;
43787;Laerm;29409;49.306;8.500;2023-03-15T03:43:27;41.42;38.52;43.90;;
43787;Laerm;29409;49.306;8.500;2023-03-15T03:44:28;41.09;38.05;43.44;;
43787;Laerm;29409;49.306;8.500;2023-03-15T03:45:28;41.82;38.05;46.18;;
43787;Laerm;29409;49.306;8.500;2023-03-15T03:46:28;41.56;38.32;48.02;;
43787;Laerm;29409;49.306;8.500;2023-03-15T03:47:29;40.95;37.88;43.81;;
43787;Laerm;29409;49.306;8.500;2023-03-15T03:48:29;40.59;37.70;43.94;;
43787;Laerm;29409;49.306;8.500;2023-03-15T03:49:30;40.88;38.21;42.88;;
43787;Laerm;29409;49.306;8.500;2023-03-15T03:50:30;41.22;38.52;43.81;;
43787;Laerm;29409;49.306;8.500;2023-03-15T03:51:31;41.30;38.37;46.20;;
43787;Laerm;29409;49.306;8.500;2023-03-15T03:52:33;41.42;38.05;51.18;;
43787;Laerm;29409;49.306;8.500;2023-03-15T03:53:33;41.51;38.67;44.03;;
43787;Laerm;29409;49.306;8.500;2023-03-15T03:54:33;41.30;38.21;43.94;;
43787;Laerm;29409;49.306;8.500;2023-03-15T03:55:34;41.33;38.67;43.24;;
43787;Laerm;29409;49.306;8.500;2023-03-15T03:56:34;41.66;39.34;48.18;;
43787;Laerm;29409;49.306;8.500;2023-03-15T03:57:34;41.85;38.95;46.82;;
43787;Laerm;29409;49.306;8.500;2023-03-15T03:58:34;42.01;38.95;45.63;;
43787;Laerm;29409;49.306;8.500;2023-03-15T03:59:35;41.78;39.46;43.54;;
43787;Laerm;29409;49.306;8.500;2023-03-15T04:00:35;41.37;38.67;43.63;;
43787;Laerm;29409;49.306;8.500;2023-03-15T04:01:36;41.20;38.21;46.33;;
43787;Laerm;29409;49.306;8.500;2023-03-15T04:02:36;41.19;38.67;44.90;;
43787;Laerm;29409;49.306;8.500;2023-03-15T04:03:36;41.59;38.37;43.99;;
43787;Laerm;29409;49.306;8.500;2023-03-15T04:04:37;41.94;39.34;48.74;;
43787;Laerm;29409;49.306;8.500;2023-03-15T04:05:41;41.43;38.52;47.12;;
43787;Laerm;29409;49.306;8.500;2023-03-15T04:06:41;41.92;38.67;46.80;;
43787;Laerm;29409;49.306;8.500;2023-03-15T04:07:46;42.12;39.58;48.61;;
43787;Laerm;29409;49.306;8.500;2023-03-15T04:08:46;43.22;39.08;50.28;;
43787;Laerm;29409;49.306;8.500;2023-03-15T04:09:47;41.38;38.21;45.45;;
43787;Laerm;29409;49.306;8.500;2023-03-15T04:10:51;42.66;39.21;50.29;;
43787;Laerm;29409;49.306;8.500;2023-03-15T04:11:52;42.58;39.34;53.03;;
43787;Laerm;29409;49.306;8.500;2023-03-15T04:12:54;41.49;38.81;43.54;;
43787;Laerm;29409;49.306;8.500;2023-03-15T04:13:55;41.19;38.81;43.19;;
43787;Laerm;29409;49.306;8.500;2023-03-15T04:14:55;41.34;38.52;46.30;;
43787;Laerm;29409;49.306;8.500;2023-03-15T04:15:55;41.35;38.81;43.29;;
43787;Laerm;29409;49.306;8.500;2023-03-15T04:16:56;41.32;38.37;49.77;;
43787;Laerm;29409;49.306;8.500;2023-03-15T04:17:56;41.42;38.67;45.27;;
43787;Laerm;29409;49.306;8.500;2023-03-15T04:18:57;41.64;38.37;44.27;;
43787;Laerm;29409;49.306;8.500;2023-03-15T04:19:57;41.76;38.52;51.88;;
43787;Laerm;29409;49.306;8.500;2023-03-15T04:21:01;41.85;38.95;48.36;;
43787;Laerm;29409;49.306;8.500;2023-03-15T04:22:01;42.07;38.05;55.64;;
43787;Laerm;29409;49.306;8.500;2023-03-15T04:23:05;42.71;38.52;52.89;;
43787;Laerm;29409;49.306;8.500;2023-03-15T04:24:06;41.47;38.52;45.80;;
43787;Laerm;29409;49.306;8.500;2023-03-15T04:25:06;40.93;37.88;42.88;;
43787;Laerm;29409;49.306;8.500;2023-03-15T04:26:07;41.56;38.32;44.07;;
43787;Laerm;29409;49.306;8.500;2023-03-15T04:27:07;44.37;39.21;52.76;;
43787;Laerm;29409;49.306;8.500;2023-03-15T04:28:08;42.25;38.52;51.07;;
43787;Laerm;29409;49.306;8.500;2023-03-15T04:29:09;42.02;39.46;45.48;;
43787;Laerm;29409;49.306;8.500;2023-03-15T04:30:11;42.51;40.13;49.83;;
43787;Laerm;29409;49.306;8.500;2023-03-15T04:31:11;42.18;38.52;46.78;;
43787;Laerm;29409;49.306;8.500;2023-03-15T04:32:13;42.60;39.58;47.70;;
43787;Laerm;29409;49.306;8.500;2023-03-15T04:33:17;45.64;41.06;60.11;;
43787;Laerm;29409;49.306;8.500;2023-03-15T04:34:17;43.53;40.43;48.13;;
43787;Laerm;29409;49.306;8.500;2023-03-15T04:35:17;45.48;40.71;56.10;;
43787;Laerm;29409;49.306;8.500;2023-03-15T04:36:18;42.32;39.58;46.66;;
43787;Laerm;29409;49.306;8.500;2023-03-15T04:37:18;43.02;40.13;46.52;;
43787;Laerm;29409;49.306;8.500;2023-03-15T04:38:19;43.13;40.53;47.44;;
43787;Laerm;29409;49.306;8.500;2023-03-15T04:39:25;43.07;39.81;49.08;;
43787;Laerm;29409;49.306;8.500;2023-03-15T04:40:27;45.40;39.81;56.78;;
43787;Laerm;29409;49.306;8.500;2023-03-15T04:41:27;45.29;39.92;58.10;;
43787;Laerm;29409;49.306;8.500;2023-03-15T04:42:27;43.18;39.46;50.00;;
43787;Laerm;29409;49.306;8.500;2023-03-15T04:43:28;42.82;40.13;48.79;;
43787;Laerm;29409;49.306;8.500;2023-03-15T04:44:28;42.17;39.70;45.97;;
43787;Laerm;29409;49.306;8.500;2023-03-15T04:45:29;42.05;39.34;45.72;;
43787;Laerm;29409;49.306;8.500;2023-03-15T04:46:30;42.07;39.58;47.42;;
43787;Laerm;29409;49.306;8.500;2023-03-15T04:47:31;43.80;39.92;49.45;;
43787;Laerm;29409;49.306;8.500;2023-03-15T04:48:32;42.05;39.46;45.83;;
43787;Laerm;29409;49.306;8.500;2023-03-15T04:49:32;42.36;39.92;47.81;;
43787;Laerm;29409;49.306;8.500;2023-03-15T04:50:33;41.87;39.46;44.47;;
43787;Laerm;29409;49.306;8.500;2023-03-15T04:51:33;42.17;38.95;46.48;;
43787;Laerm;29409;49.306;8.500;2023-03-15T04:52:34;43.24;40.23;46.18;;
43787;Laerm;29409;49.306;8.500;2023-03-15T04:53:34;42.82;40.23;45.14;;
43787;Laerm;29409;49.306;8.500;2023-03-15T04:54:34;42.16;39.34;45.99;;
43787;Laerm;29409;49.306;8.500;2023-03-15T04:55:35;42.03;38.67;45.83;;
43787;Laerm;29409;49.306;8.500;2023-03-15T04:56:35;42.22;39.34;46.87;;
43787;Laerm;29409;49.306;8.500;2023-03-15T04:57:36;42.26;39.34;45.72;;
43787;Laerm;29409;49.306;8.500;2023-03-15T04:58:36;42.47;39.21;54.76;;
43787;Laerm;29409;49.306;8.500;2023-03-15T04:59:37;43.02;40.13;58.24;;
43787;Laerm;29409;49.306;8.500;2023-03-15T05:00:37;43.14;40.98;46.57;;
43787;Laerm;29409;49.306;8.500;2023-03-15T05:01:37;48.58;40.98;65.77;;
43787;Laerm;29409;49.306;8.500;2023-03-15T05:02:39;43.71;40.80;53.64;;
43787;Laerm;29409;49.306;8.500;2023-03-15T05:03:40;51.47;40.89;70.43;;
43787;Laerm;29409;49.306;8.500;2023-03-15T05:04:40;43.34;41.22;45.75;;
43787;Laerm;29409;49.306;8.500;2023-03-15T05:05:41;43.28;41.06;45.51;;
43787;Laerm;29409;49.306;8.500;2023-03-15T05:06:41;43.28;41.22;47.14;;
43787;Laerm;29409;49.306;8.500;2023-03-15T05:07:43;44.73;40.13;52.68;;
43787;Laerm;29409;49.306;8.500;2023-03-15T05:08:43;43.81;39.58;51.55;;
43787;Laerm;29409;49.306;8.500;2023-03-15T05:09:44;41.77;39.46;44.07;;
43787;Laerm;29409;49.306;8.500;2023-03-15T05:10:45;42.36;39.34;46.40;;
43787;Laerm;29409;49.306;8.500;2023-03-15T05:11:45;42.33;39.92;45.80;;
43787;Laerm;29409;49.306;8.500;2023-03-15T05:12:45;43.37;40.53;47.38;;
43787;Laerm;29409;49.306;8.500;2023-03-15T05:13:46;42.24;39.08;50.97;;
43787;Laerm;29409;49.306;8.500;2023-03-15T05:14:46;42.14;38.81;48.61;;
43787;Laerm;29409;49.306;8.500;2023-03-15T05:15:46;41.74;39.08;45.14;;
43787;Laerm;29409;49.306;8.500;2023-03-15T05:16:47;42.35;39.46;46.57;;
43787;Laerm;29409;49.306;8.500;2023-03-15T05:17:48;43.02;40.03;49.74;;
43787;Laerm;29409;49.306;8.500;2023-03-15T05:18:48;42.76;39.81;49.95;;
43787;Laerm;29409;49.306;8.500;2023-03-15T05:19:48;42.94;39.58;51.23;;
43787;Laerm;29409;49.306;8.500;2023-03-15T05:20:49;42.66;39.58;50.54;;
43787;Laerm;29409;49.306;8.500;2023-03-15T05:21:49;44.44;39.81;55.44;;
43787;Laerm;29409;49.306;8.500;2023-03-15T05:22:50;42.70;39.92;47.34;;
43787;Laerm;29409;49.306;8.500;2023-03-15T05:23:52;42.64;40.33;44.90;;
43787;Laerm;29409;49.306;8.500;2023-03-15T05:24:52;42.65;40.13;47.20;;
43787;Laerm;29409;49.306;8.500;2023-03-15T05:25:53;42.34;39.46;45.45;;
43787;Laerm;29409;49.306;8.500;2023-03-15T05:26:53;43.05;40.71;47.55;;
43787;Laerm;29409;49.306;8.500;2023-03-15T05:27:54;42.24;40.03;45.75;;
43787;Laerm;29409;49.306;8.500;2023-03-15T05:28:54;43.12;40.13;50.70;;
43787;Laerm;29409;49.306;8.500;2023-03-15T05:29:55;42.47;39.81;46.06;;
43787;Laerm;29409;49.306;8.500;2023-03-15T05:30:55;42.38;40.03;44.97;;
43787;Laerm;29409;49.306;8.500;2023-03-15T05:31:56;42.93;40.43;51.17;;
43787;Laerm;29409;49.306;8.500;2023-03-15T05:32:56;42.61;40.13;45.72;;
43787;Laerm;29409;49.306;8.500;2023-03-15T05:33:57;44.82;40.23;56.31;;
43787;Laerm;29409;49.306;8.500;2023-03-15T05:34:57;43.74;40.53;59.10;;
43787;Laerm;29409;49.306;8.500;2023-03-15T05:35:57;43.65;40.43;57.29;;
43787;Laerm;29409;49.306;8.500;2023-03-15T05:36:58;43.97;40.23;56.21;;
43787;Laerm;29409;49.306;8.500;2023-03-15T05:37:58;46.54;40.89;59.38;;
43787;Laerm;29409;49.306;8.500;2023-03-15T05:38:59;44.11;40.89;58.73;;
43787;Laerm;29409;49.306;8.500;2023-03-15T05:40:02;44.67;41.14;52.31;;
43787;Laerm;29409;49.306;8.500;2023-03-15T05:41:10;47.43;41.30;58.27;;
43787;Laerm;29409;49.306;8.500;2023-03-15T05:42:10;43.11;40.71;47.90;;
43787;Laerm;29409;49.306;8.500;2023-03-15T05:43:11;43.35;40.62;50.30;;
43787;Laerm;29409;49.306;8.500;2023-03-15T05:44:11;43.09;40.33;53.48;;
43787;Laerm;29409;49.306;8.500;2023-03-15T05:45:11;43.48;40.71;56.35;;
43787;Laerm;29409;49.306;8.500;2023-03-15T05:46:12;42.81;40.62;57.07;;
43787;Laerm;29409;49.306;8.500;2023-03-15T05:47:12;42.28;40.23;47.63;;